Time;durP1;ratioP1;P1;durP2;ratioP2;P2;SDS_P1;SDS_P2;PMS_P1;PMS_P2;Temp;Humidity;BMP_temperature;BMP_pressure;BME280_temperature;BME280_humidity;BME280_pressure;Samples;Min_cycle;Max_cycle;Signal;HPM_P1;HPM_P2
2022/09/14 00:00:21;;;;;;;8.35;1.92;;;;;;;11.44;100.00;155398.25;5001450;28;20466;-79
2022/09/14 00:02:47;;;;;;;6.53;1.50;;;;;;;11.38;100.00;155382.88;4993770;28;20509;-81
2022/09/14 00:05:13;;;;;;;9.07;2.72;;;;;;;11.44;100.00;155398.25;5018338;28;20029;-82
2022/09/14 00:07:39;;;;;;;9.73;2.55;;;;;;;11.46;100.00;155403.41;5013860;28;20034;-81
2022/09/14 00:10:05;;;;;;;9.32;2.00;;;;;;;11.49;100.00;155411.13;4997519;28;20224;-84
2022/09/14 00:12:31;;;;;;;7.13;1.90;;;;;;;11.36;100.00;155377.69;5022632;28;20046;-80
2022/09/14 00:14:57;;;;;;;6.20;1.60;;;;;;;11.47;100.00;155405.94;5019613;28;20030;-82
2022/09/14 00:17:22;;;;;;;7.50;1.67;;;;;;;11.43;100.00;155395.69;4996389;28;20069;-80
2022/09/14 00:19:48;;;;;;;6.50;1.50;;;;;;;11.39;100.00;155386.69;4992814;28;20038;-85
2022/09/14 00:22:14;;;;;;;11.05;1.60;;;;;;;11.25;100.00;155350.78;5004859;28;20039;-85
2022/09/14 00:24:39;;;;;;;9.02;1.40;;;;;;;11.33;100.00;155371.31;4988299;28;20064;-83
2022/09/14 00:27:05;;;;;;;9.40;1.50;;;;;;;11.23;100.00;155345.66;5004377;28;20037;-81
2022/09/14 00:29:32;;;;;;;7.78;1.60;;;;;;;11.30;100.00;155364.91;4985032;28;20054;-80
2022/09/14 00:31:58;;;;;;;7.38;1.80;;;;;;;11.33;100.00;155370.03;4980059;28;20045;-84
2022/09/14 00:34:24;;;;;;;10.77;1.58;;;;;;;11.26;100.00;155353.31;4999223;28;20034;-82
2022/09/14 00:36:50;;;;;;;7.43;1.33;;;;;;;11.46;100.00;155403.41;4984602;28;20064;-80
2022/09/14 00:39:19;;;;;;;5.00;1.50;;;;;;;11.47;100.00;155405.94;4995835;28;20064;-84
2022/09/14 00:41:50;;;;;;;9.65;1.40;;;;;;;11.41;100.00;155391.81;4975286;28;20037;-84
2022/09/14 00:44:15;;;;;;;13.43;1.70;;;;;;;11.45;100.00;155400.81;5016152;28;20087;-85
2022/09/14 00:46:52;;;;;;;12.95;1.92;;;;;;;11.40;100.00;155388.00;4970850;28;20491;-85
2022/09/14 00:49:25;;;;;;;8.63;2.10;;;;;;;11.41;100.00;155390.56;5001260;28;20041;-84
2022/09/14 00:52:14;;;;;;;19.10;2.42;;;;;;;11.24;100.00;155348.19;4985245;28;20091;-85
2022/09/14 00:54:42;;;;;;;9.50;1.77;;;;;;;11.24;100.00;155348.19;4999321;28;20042;-84
2022/09/14 00:57:09;;;;;;;13.82;2.42;;;;;;;11.17;100.00;155331.53;4996680;28;20037;-82
2022/09/14 00:59:37;;;;;;;15.80;2.35;;;;;;;11.15;100.00;155325.09;4983007;28;20109;-85
2022/09/14 01:02:06;;;;;;;9.43;2.13;;;;;;;11.08;100.00;155308.44;4983478;28;20078;-83
2022/09/14 01:04:31;;;;;;;10.43;2.55;;;;;;;10.90;100.00;155264.75;4996527;28;20407;-83
2022/09/14 01:07:18;;;;;;;14.23;2.10;;;;;;;11.01;100.00;155291.72;4998173;28;20063;-82
2022/09/14 01:10:02;;;;;;;9.20;2.45;;;;;;;10.99;100.00;155285.31;4994239;28;20045;-82
2022/09/14 01:12:37;;;;;;;9.23;2.20;;;;;;;10.97;100.00;155281.47;5009032;28;20041;-82
2022/09/14 01:15:14;;;;;;;9.65;1.98;;;;;;;10.95;100.00;155275.06;4996195;28;20042;-83
2022/09/14 01:18:02;;;;;;;14.32;2.17;;;;;;;10.95;100.00;155275.06;5008828;28;20041;-85
2022/09/14 01:20:37;;;;;;;8.32;1.73;;;;;;;10.96;100.00;155277.59;4997471;28;20030;-83
2022/09/14 01:23:27;;;;;;;7.07;1.88;;;;;;;10.98;100.00;155284.06;4978962;28;20095;-82
2022/09/14 01:26:27;;;;;;;8.80;1.98;;;;;;;10.95;100.00;155276.34;4998270;28;20048;-84
2022/09/14 01:29:02;;;;;;;8.07;1.70;;;;;;;10.91;100.00;155267.34;4986772;28;20045;-82
2022/09/14 01:31:47;;;;;;;10.43;2.05;;;;;;;10.82;100.00;155242.97;4992222;28;20049;-83
2022/09/14 01:34:27;;;;;;;9.85;1.58;;;;;;;10.78;100.00;155234.00;4998090;28;20553;-82
2022/09/14 01:37:16;;;;;;;7.38;2.00;;;;;;;10.64;100.00;155198.03;5001398;28;20042;-85
2022/09/14 01:39:47;;;;;;;8.35;1.98;;;;;;;10.78;100.00;155232.72;5002208;28;20677;-84
2022/09/14 01:42:15;;;;;;;10.63;2.30;;;;;;;10.71;100.00;155216.03;4993386;28;20116;-84
2022/09/14 01:44:47;;;;;;;10.00;2.72;;;;;;;10.70;100.00;155213.47;4992439;28;20103;-80
2022/09/14 01:47:22;;;;;;;9.93;2.35;;;;;;;10.64;100.00;155199.38;5010122;28;20037;-78
2022/09/14 01:50:09;;;;;;;11.55;2.67;;;;;;;10.59;100.00;155185.25;4969238;28;20494;-79
2022/09/14 01:52:53;;;;;;;6.63;2.08;;;;;;;10.58;100.00;155183.94;4990290;28;20041;-79
2022/09/14 01:55:30;;;;;;;10.80;2.40;;;;;;;10.59;100.00;155186.53;4980034;28;20113;-78
2022/09/14 01:58:10;;;;;;;6.55;2.00;;;;;;;10.53;100.00;155171.13;4978509;28;20041;-80
2022/09/14 02:00:40;;;;;;;11.00;2.30;;;;;;;10.48;100.00;155158.31;4972703;28;20034;-77
2022/09/14 02:03:27;;;;;;;12.82;2.67;;;;;;;10.55;100.00;155174.94;4995135;28;20458;-78
2022/09/14 02:06:06;;;;;;;9.02;1.90;;;;;;;10.53;100.00;155171.13;4984072;28;20447;-79
2022/09/14 02:08:33;;;;;;;12.30;2.33;;;;;;;10.52;100.00;155168.56;4976029;28;20037;-84
2022/09/14 02:10:59;;;;;;;9.73;2.00;;;;;;;10.52;100.00;155169.81;4975440;28;20041;-83
2022/09/14 02:13:28;;;;;;;7.72;2.10;;;;;;;10.50;100.00;155164.69;4976813;28;20048;-83
2022/09/14 02:15:55;;;;;;;12.43;2.00;;;;;;;10.46;100.00;155154.44;4980846;28;20042;-82
2022/09/14 02:18:20;;;;;;;7.43;1.90;;;;;;;10.39;100.00;155136.47;4994911;28;20034;-81
2022/09/14 02:20:52;;;;;;;10.70;2.05;;;;;;;10.42;100.00;155144.19;4998840;28;20041;-80
2022/09/14 02:23:18;;;;;;;10.77;1.90;;;;;;;10.44;100.00;155148.03;4996185;28;20245;-80
2022/09/14 02:25:45;;;;;;;13.30;1.90;;;;;;;10.45;100.00;155150.59;4990447;28;20042;-80
2022/09/14 02:28:11;;;;;;;7.53;1.90;;;;;;;10.34;100.00;155123.69;4996766;28;20037;-79
2022/09/14 02:31:03;;;;;;;11.82;2.00;;;;;;;10.36;100.00;155128.81;4977923;28;20100;-78
2022/09/14 02:33:48;;;;;;;7.18;1.80;;;;;;;10.36;100.00;155127.50;4986993;28;20110;-78
2022/09/14 02:36:52;;;;;;;3.90;1.40;;;;;;;10.38;100.00;155132.63;4983216;28;20380;-80
2022/09/14 02:40:15;;;;;;;9.23;2.20;;;;;;;10.38;100.00;155132.63;4984973;28;20064;-80
2022/09/14 02:43:04;;;;;;;8.73;1.60;;;;;;;10.36;100.00;155128.81;4902352;29;20035;-80
2022/09/14 02:45:43;;;;;;;10.40;1.80;;;;;;;10.30;100.00;155113.34;4898832;29;20082;-79
2022/09/14 02:48:21;;;;;;;8.00;1.58;;;;;;;10.32;100.00;155118.50;4980592;28;20045;-80
2022/09/14 02:50:52;;;;;;;9.25;1.50;;;;;;;10.32;100.00;155118.50;4994910;28;20122;-78
2022/09/14 02:53:26;;;;;;;10.57;1.90;;;;;;;10.38;100.00;155133.94;5011056;28;20041;-78
2022/09/14 02:55:57;;;;;;;8.50;1.80;;;;;;;10.33;100.00;155122.38;5002495;28;20124;-79
2022/09/14 02:58:22;;;;;;;4.15;1.50;;;;;;;10.29;100.00;155110.78;5019730;28;20034;-79
2022/09/14 03:00:49;;;;;;;7.60;1.73;;;;;;;10.23;100.00;155095.41;4998942;28;20585;-79
2022/09/14 03:03:19;;;;;;;6.80;1.60;;;;;;;10.21;100.00;155091.56;5013772;28;20037;-81
2022/09/14 03:05:46;;;;;;;4.43;1.35;;;;;;;10.21;100.00;155090.22;4998866;28;20049;-80
2022/09/14 03:08:12;;;;;;;6.90;1.45;;;;;;;10.11;100.00;155067.19;5034311;28;20025;-82
2022/09/14 03:10:40;;;;;;;7.25;1.40;;;;;;;10.12;100.00;155068.47;4986980;28;20038;-83
2022/09/14 03:13:05;;;;;;;10.18;2.17;;;;;;;10.07;100.00;155056.91;4994316;28;20041;-82
2022/09/14 03:15:31;;;;;;;9.20;1.80;;;;;;;9.96;100.00;155027.41;4989366;28;20037;-79
2022/09/14 03:17:57;;;;;;;9.93;2.25;;;;;;;9.97;100.00;155031.25;4977976;28;20052;-82
2022/09/14 03:20:26;;;;;;;8.80;1.70;;;;;;;9.93;100.00;155021.00;5028892;28;20033;-82
2022/09/14 03:22:52;;;;;;;8.55;1.67;;;;;;;9.87;100.00;155006.91;4982432;28;20096;-81
2022/09/14 03:25:18;;;;;;;8.35;1.73;;;;;;;9.85;100.00;155000.47;5026043;28;20113;-81
2022/09/14 03:27:54;;;;;;;8.73;1.98;;;;;;;9.85;100.00;155000.47;5000379;28;20073;-78
2022/09/14 03:30:20;;;;;;;7.53;1.80;;;;;;;9.83;100.00;154996.66;5008472;28;20521;-78
2022/09/14 03:32:46;;;;;;;7.57;1.63;;;;;;;9.81;100.00;154990.22;5012239;28;20506;-80
2022/09/14 03:35:12;;;;;;;10.88;2.22;;;;;;;9.78;100.00;154983.81;4982827;28;20033;-78
2022/09/14 03:37:39;;;;;;;7.32;1.98;;;;;;;9.71;100.00;154965.84;5011829;28;20068;-81
2022/09/14 03:40:06;;;;;;;6.75;1.65;;;;;;;9.76;100.00;154978.69;4981714;28;20077;-79
2022/09/14 03:42:32;;;;;;;5.97;1.65;;;;;;;9.74;100.00;154974.84;4999575;28;20183;-80
2022/09/14 03:44:58;;;;;;;8.07;2.08;;;;;;;9.68;100.00;154959.47;4984314;28;20085;-80
2022/09/14 03:47:24;;;;;;;8.73;1.75;;;;;;;9.69;100.00;154960.75;5000226;28;20615;-79
2022/09/14 03:49:49;;;;;;;10.82;1.70;;;;;;;9.65;100.00;154951.75;5000120;28;20048;-80
2022/09/14 03:52:16;;;;;;;6.13;1.73;;;;;;;9.67;100.00;154955.59;4978746;28;20038;-80
2022/09/14 03:54:41;;;;;;;6.68;1.60;;;;;;;9.65;100.00;154951.75;4997021;28;20073;-80
2022/09/14 03:57:07;;;;;;;10.60;1.90;;;;;;;9.63;100.00;154946.63;5003586;28;20111;-79
2022/09/14 03:59:33;;;;;;;8.35;1.50;;;;;;;9.65;100.00;154950.47;5007772;28;20037;-79
2022/09/14 04:01:59;;;;;;;8.05;1.58;;;;;;;9.60;100.00;154937.66;4994742;28;20068;-81
2022/09/14 04:04:25;;;;;;;6.20;1.48;;;;;;;9.62;100.00;154944.03;4984916;28;20551;-80
2022/09/14 04:06:51;;;;;;;7.00;2.03;;;;;;;9.54;100.00;154924.81;4995865;28;20038;-77
2022/09/14 04:09:18;;;;;;;5.82;1.67;;;;;;;9.61;100.00;154941.50;4982795;28;20037;-80
2022/09/14 04:11:44;;;;;;;8.75;2.33;;;;;;;9.59;100.00;154935.06;4999437;28;20045;-80
2022/09/14 04:14:11;;;;;;;7.22;1.63;;;;;;;9.58;100.00;154932.53;5006808;28;20021;-81
2022/09/14 04:16:38;;;;;;;9.20;2.10;;;;;;;9.58;100.00;154933.78;5011773;28;20033;-79
2022/09/14 04:19:04;;;;;;;6.90;1.80;;;;;;;9.58;100.00;154932.53;4982087;28;20119;-78
2022/09/14 04:21:30;;;;;;;8.63;2.20;;;;;;;9.60;100.00;154938.91;5009157;28;20109;-77
2022/09/14 04:23:56;;;;;;;6.05;1.50;;;;;;;9.64;100.00;154947.91;4990853;28;20045;-80
2022/09/14 04:26:24;;;;;;;7.13;1.55;;;;;;;9.67;100.00;154955.59;4993632;28;20038;-78
2022/09/14 04:28:50;;;;;;;7.00;1.65;;;;;;;9.71;100.00;154967.13;4980778;28;20049;-79
2022/09/14 04:31:15;;;;;;;7.75;1.80;;;;;;;9.77;100.00;154981.25;5007769;28;20558;-80
2022/09/14 04:33:42;;;;;;;8.93;2.00;;;;;;;9.82;100.00;154992.81;4998415;28;20056;-78
2022/09/14 04:36:14;;;;;;;8.38;1.75;;;;;;;9.76;100.00;154978.69;5008924;28;20029;-80
2022/09/14 04:38:41;;;;;;;7.43;1.63;;;;;;;9.80;100.00;154988.94;4988325;28;20088;-81
2022/09/14 04:41:12;;;;;;;8.27;1.90;;;;;;;9.86;100.00;155004.31;4973087;28;20065;-79
2022/09/14 04:43:38;;;;;;;6.95;2.00;;;;;;;10.03;100.00;155046.63;4993397;28;20045;-80
2022/09/14 04:46:07;;;;;;;9.90;2.30;;;;;;;10.13;100.00;155071.00;4978196;28;20029;-79
2022/09/14 04:48:36;;;;;;;11.95;2.58;;;;;;;10.24;100.00;155099.22;5021966;28;20510;-77
2022/09/14 04:51:08;;;;;;;6.97;2.10;;;;;;;10.32;100.00;155119.81;4981652;28;20458;-79
2022/09/14 04:53:36;;;;;;;12.77;2.38;;;;;;;10.24;100.00;155097.94;4969967;28;20041;-78
2022/09/14 04:56:08;;;;;;;6.20;2.00;;;;;;;10.26;100.00;155104.34;5014760;28;20079;-78
2022/09/14 04:58:38;;;;;;;7.22;1.80;;;;;;;10.25;100.00;155101.81;5025199;28;20032;-81
2022/09/14 05:01:10;;;;;;;7.07;2.05;;;;;;;10.28;100.00;155108.19;4981420;28;20034;-80
2022/09/14 05:03:40;;;;;;;7.10;2.13;;;;;;;10.33;100.00;155122.38;5010908;28;20033;-79
2022/09/14 05:06:09;;;;;;;9.00;2.15;;;;;;;10.41;100.00;155141.59;4979646;28;20072;-81
2022/09/14 05:08:37;;;;;;;8.15;2.13;;;;;;;10.42;100.00;155144.19;4982258;28;20045;-80
2022/09/14 05:11:05;;;;;;;8.73;2.22;;;;;;;10.45;100.00;155150.59;4978656;28;20148;-78
2022/09/14 05:13:31;;;;;;;6.25;2.10;;;;;;;10.46;100.00;155154.44;4979043;28;20044;-80
2022/09/14 05:16:06;;;;;;;7.13;2.20;;;;;;;10.56;100.00;155177.53;5012522;28;20087;-80
2022/09/14 05:18:32;;;;;;;12.27;2.50;;;;;;;10.56;100.00;155178.81;4987986;28;20025;-81
2022/09/14 05:21:01;;;;;;;7.00;2.20;;;;;;;10.61;100.00;155191.66;5014075;28;20124;-80
2022/09/14 05:23:27;;;;;;;9.85;2.00;;;;;;;10.64;100.00;155199.38;4982224;28;20063;-79
2022/09/14 05:25:52;;;;;;;11.45;2.47;;;;;;;10.72;100.00;155218.59;4981602;28;20042;-78
2022/09/14 05:28:18;;;;;;;5.10;2.15;;;;;;;10.74;100.00;155222.41;5008418;28;20041;-79
2022/09/14 05:30:44;;;;;;;7.18;2.10;;;;;;;10.76;100.00;155227.59;4996538;28;20527;-79
2022/09/14 05:33:09;;;;;;;7.88;1.92;;;;;;;10.82;100.00;155244.25;4996413;28;20033;-81
2022/09/14 05:35:35;;;;;;;5.55;2.00;;;;;;;10.89;100.00;155260.94;5009422;28;20156;-79
2022/09/14 05:38:00;;;;;;;6.60;2.08;;;;;;;10.89;100.00;155260.94;4979486;28;20044;-79
2022/09/14 05:40:26;;;;;;;5.97;1.88;;;;;;;10.94;100.00;155273.75;4982333;28;20034;-80
2022/09/14 05:42:51;;;;;;;8.73;2.35;;;;;;;11.03;100.00;155295.56;4982844;28;20051;-81
2022/09/14 05:45:17;;;;;;;9.70;2.00;;;;;;;11.05;100.00;155301.97;4989028;28;20044;-80
2022/09/14 05:47:42;;;;;;;8.75;2.35;;;;;;;11.13;100.00;155319.97;5026938;28;20047;-81
2022/09/14 05:50:08;;;;;;;8.07;1.83;;;;;;;11.09;100.00;155310.97;4996616;28;20041;-79
2022/09/14 05:52:34;;;;;;;7.97;2.10;;;;;;;11.14;100.00;155322.53;5016537;28;20160;-78
2022/09/14 05:54:59;;;;;;;7.03;1.90;;;;;;;11.21;100.00;155340.53;5008381;28;20097;-80
2022/09/14 05:57:25;;;;;;;9.63;2.03;;;;;;;11.30;100.00;155363.56;5016851;28;20060;-80
2022/09/14 05:59:50;;;;;;;9.40;2.40;;;;;;;11.37;100.00;155380.28;5008875;28;20032;-78
2022/09/14 06:02:16;;;;;;;8.77;2.10;;;;;;;11.45;100.00;155400.81;5016740;28;20029;-80
2022/09/14 06:04:41;;;;;;;7.38;2.03;;;;;;;11.44;100.00;155399.53;4997775;28;20037;-79
2022/09/14 06:07:07;;;;;;;9.30;2.03;;;;;;;11.62;100.00;155444.50;5008948;28;20042;-79
2022/09/14 06:09:32;;;;;;;6.47;2.60;;;;;;;11.72;100.00;155467.59;5003768;28;20034;-79
2022/09/14 06:11:58;;;;;;;7.65;2.08;;;;;;;11.79;100.00;155486.84;5001791;28;20041;-79
2022/09/14 06:14:23;;;;;;;9.75;2.13;;;;;;;11.94;100.00;155522.81;4999137;28;20126;-78
2022/09/14 06:16:49;;;;;;;11.68;2.28;;;;;;;11.96;100.00;155529.28;4988924;28;20049;-80
2022/09/14 06:19:15;;;;;;;6.53;1.90;;;;;;;12.12;100.00;155569.06;5005962;28;20029;-79
2022/09/14 06:21:41;;;;;;;12.68;2.35;;;;;;;12.20;100.00;155588.31;5038495;28;20047;-78
2022/09/14 06:24:11;;;;;;;7.88;2.15;;;;;;;12.26;100.00;155605.03;5011709;28;20037;-77
2022/09/14 06:26:38;;;;;;;5.40;2.05;;;;;;;12.31;100.00;155615.31;5025129;28;20018;-80
2022/09/14 06:29:03;;;;;;;7.28;1.95;;;;;;;12.37;100.00;155630.72;5039240;28;20026;-78
2022/09/14 06:31:29;;;;;;;6.00;2.00;;;;;;;12.41;100.00;155642.28;5042121;28;20036;-79
2022/09/14 06:33:54;;;;;;;9.98;2.30;;;;;;;12.44;100.00;155649.97;5008682;28;20037;-78
2022/09/14 06:36:23;;;;;;;7.88;2.22;;;;;;;12.73;100.00;155720.63;5022578;28;20041;-78
2022/09/14 06:38:49;;;;;;;9.13;2.13;;;;;;;12.84;100.00;155748.88;5044223;28;20064;-80
2022/09/14 06:41:27;;;;;;;9.35;2.30;;;;;;;12.94;100.00;155774.63;5003896;28;20037;-80
2022/09/14 06:43:56;;;;;;;6.25;1.80;;;;;;;13.11;100.00;155817.00;5007490;28;20037;-81
2022/09/14 06:46:24;;;;;;;12.00;2.20;;;;;;;13.15;100.00;155827.28;4998417;28;20049;-81
2022/09/14 06:48:54;;;;;;;10.40;1.92;;;;;;;13.32;100.00;155868.47;4986885;28;20103;-81
2022/09/14 06:51:23;;;;;;;9.35;2.10;;;;;;;13.44;100.00;155900.56;4998525;28;20133;-79
2022/09/14 06:53:49;;;;;;;12.50;2.28;;;;;;;13.56;100.00;155928.84;5005720;28;20034;-79
2022/09/14 06:56:15;;;;;;;9.18;1.77;;;;;;;13.66;100.00;155954.56;5018644;28;20030;-80
2022/09/14 06:58:41;;;;;;;9.80;1.95;;;;;;;13.70;100.00;155963.56;4991915;28;20099;-80
2022/09/14 07:01:11;;;;;;;7.45;2.03;;;;;;;13.78;100.00;155984.13;5019214;28;20492;-78
2022/09/14 07:03:38;;;;;;;8.68;2.22;;;;;;;13.88;100.00;156009.84;5012183;28;20037;-79
2022/09/14 07:06:06;;;;;;;10.65;2.05;;;;;;;13.94;100.00;156025.28;4988897;28;20511;-81
2022/09/14 07:08:33;;;;;;;9.18;1.88;;;;;;;14.01;100.00;156043.28;4978296;28;20036;-80
2022/09/14 07:10:59;;;;;;;11.40;1.40;;;;;;;14.05;100.00;156052.25;5003215;28;20232;-80
2022/09/14 07:13:27;;;;;;;9.00;1.58;;;;;;;14.13;100.00;156071.56;4984556;28;20033;-81
2022/09/14 07:15:52;;;;;;;4.53;1.60;;;;;;;14.11;100.00;156067.69;5004847;28;20095;-80
2022/09/14 07:18:18;;;;;;;11.93;1.77;;;;;;;14.17;100.00;156083.13;4982694;28;20040;-80
2022/09/14 07:20:43;;;;;;;7.18;1.48;;;;;;;14.19;100.00;156086.97;5014498;28;20034;-79
2022/09/14 07:23:11;;;;;;;10.57;1.70;;;;;;;14.24;100.00;156098.53;4988546;28;20067;-81
2022/09/14 07:25:37;;;;;;;10.45;2.15;;;;;;;14.32;100.00;156119.13;4997635;28;20094;-80
2022/09/14 07:28:02;;;;;;;7.63;1.52;;;;;;;14.43;100.00;156147.44;5019127;28;20049;-76
2022/09/14 07:30:28;;;;;;;13.55;1.70;;;;;;;14.54;100.00;156174.41;5002047;28;20046;-80
2022/09/14 07:32:54;;;;;;;7.07;1.73;;;;;;;14.68;100.00;156210.47;4996041;28;20138;-80
2022/09/14 07:35:20;;;;;;;10.15;1.50;;;;;;;14.78;100.00;156234.91;4984243;28;20037;-80
2022/09/14 07:37:45;;;;;;;9.32;1.67;;;;;;;14.72;100.00;156220.75;4985986;28;20119;-80
2022/09/14 07:40:11;;;;;;;8.15;1.42;;;;;;;14.76;100.00;156231.03;4987950;28;20565;-80
2022/09/14 07:42:37;;;;;;;7.25;1.75;;;;;;;14.79;100.00;156238.78;5008474;28;20064;-80
2022/09/14 07:45:04;;;;;;;5.47;1.50;;;;;;;14.81;100.00;156241.38;5000226;28;20404;-79
2022/09/14 07:47:30;;;;;;;9.00;1.55;;;;;;;14.89;100.00;156263.22;5035968;28;20773;-80
2022/09/14 07:49:56;;;;;;;10.00;1.88;;;;;;;15.08;100.00;156309.53;5017345;28;20045;-80
2022/09/14 07:52:21;;;;;;;8.07;1.67;;;;;;;15.13;100.00;156323.69;5006381;28;20025;-79
2022/09/14 07:54:47;;;;;;;6.97;1.45;;;;;;;15.20;100.00;156340.44;5002979;28;20037;-80
2022/09/14 07:57:13;;;;;;;8.80;1.90;;;;;;;15.23;100.00;156346.84;5016235;28;20037;-80
2022/09/14 07:59:39;;;;;;;7.30;1.65;;;;;;;15.29;100.00;156363.53;4988994;28;20041;-81
2022/09/14 08:02:09;;;;;;;8.45;1.50;;;;;;;15.46;100.00;156404.72;4986531;28;20041;-81
2022/09/14 08:04:37;;;;;;;5.57;1.35;;;;;;;15.68;100.00;156460.09;5004156;28;20040;-82
2022/09/14 08:07:03;;;;;;;8.23;1.48;;;;;;;15.86;100.00;156505.16;5001369;28;20045;-80
2022/09/14 08:09:28;;;;;;;10.13;1.70;;;;;;;15.99;100.00;156537.34;5014253;28;20526;-80
2022/09/14 08:11:54;;;;;;;6.35;1.52;;;;;;;16.03;100.00;156547.63;5015901;28;20041;-82
2022/09/14 08:14:19;;;;;;;7.35;1.45;;;;;;;16.22;100.00;156595.25;5000707;28;20045;-80
2022/09/14 08:16:45;;;;;;;8.25;1.20;;;;;;;16.45;100.00;156653.22;5017578;28;20041;-80
2022/09/14 08:19:14;;;;;;;7.05;1.50;;;;;;;16.50;100.00;156667.38;4996475;28;20491;-80
2022/09/14 08:21:40;;;;;;;7.32;1.33;;;;;;;16.84;100.00;156752.44;5016316;28;20072;-80
2022/09/14 08:24:06;;;;;;;5.40;1.30;;;;;;;17.21;100.00;156843.84;5002629;28;20574;-81
2022/09/14 08:26:35;;;;;;;8.02;1.50;;;;;;;17.62;100.00;156948.19;5005147;28;20074;-81
2022/09/14 08:29:03;;;;;;;5.35;1.15;;;;;;;17.66;98.59;156958.50;5036098;28;20066;-81
2022/09/14 08:31:30;;;;;;;8.82;1.50;;;;;;;17.59;96.06;156940.44;5024237;28;20032;-80
2022/09/14 08:33:58;;;;;;;5.38;1.20;;;;;;;17.36;97.46;156881.22;4997634;28;20072;-83
2022/09/14 08:36:26;;;;;;;9.30;1.60;;;;;;;17.15;97.77;156829.69;5004842;28;20022;-81
2022/09/14 08:38:52;;;;;;;11.70;1.67;;;;;;;17.13;98.50;156824.53;4992005;28;20040;-81
2022/09/14 08:41:20;;;;;;;6.88;1.52;;;;;;;17.26;96.25;156856.75;5019308;28;20045;-79
2022/09/14 08:43:46;;;;;;;10.20;1.55;;;;;;;17.28;100.00;156861.91;5018229;28;20088;-81
2022/09/14 08:46:34;;;;;;;9.23;1.48;;;;;;;17.59;97.50;156939.16;4997214;28;20029;-81
2022/09/14 08:49:04;;;;;;;8.98;1.52;;;;;;;17.45;93.21;156904.41;5005859;28;20155;-79
2022/09/14 08:51:30;;;;;;;7.18;1.20;;;;;;;17.46;94.98;156906.97;5013906;28;20517;-81
2022/09/14 08:53:58;;;;;;;10.90;1.45;;;;;;;17.73;94.41;156975.28;5003946;28;20510;-82
2022/09/14 08:56:30;;;;;;;12.65;1.60;;;;;;;17.96;92.93;157033.28;5004248;28;20041;-83
2022/09/14 08:59:20;;;;;;;7.18;1.48;;;;;;;18.20;93.18;157092.59;5015259;28;20029;-80
2022/09/14 09:01:51;;;;;;;6.40;1.50;;;;;;;18.20;91.87;157092.59;5014181;28;20038;-79
2022/09/14 09:04:33;;;;;;;7.63;1.30;;;;;;;17.98;92.98;157038.44;5032066;28;20510;-79
2022/09/14 09:07:16;;;;;;;4.22;1.10;;;;;;;17.82;90.32;156997.13;5014781;28;20127;-81
2022/09/14 09:09:45;;;;;;;9.98;1.42;;;;;;;17.79;92.53;156989.44;5032056;28;20088;-82
2022/09/14 09:12:20;;;;;;;11.13;1.98;;;;;;;18.00;91.98;157043.59;4996543;28;20064;-80
2022/09/14 09:14:51;;;;;;;6.18;1.38;;;;;;;17.98;87.91;157037.16;5016025;28;20072;-82
2022/09/14 09:17:23;;;;;;;8.13;1.70;;;;;;;18.07;92.68;157060.38;4996197;28;20033;-81
2022/09/14 09:20:11;;;;;;;5.80;1.40;;;;;;;18.19;88.34;157090.00;5014449;28;20077;-81
2022/09/14 09:22:42;;;;;;;11.48;1.20;;;;;;;18.47;86.97;157162.16;4990079;28;20060;-81
2022/09/14 09:25:21;;;;;;;6.32;1.27;;;;;;;18.63;90.54;157200.88;5011729;28;20068;-81
2022/09/14 09:27:54;;;;;;;8.02;1.48;;;;;;;18.37;85.01;157135.13;5003665;28;20117;-78
2022/09/14 09:30:19;;;;;;;6.13;1.27;;;;;;;18.36;83.11;157132.53;5014164;28;20064;-79
2022/09/14 09:32:45;;;;;;;4.13;1.10;;;;;;;18.39;79.66;157140.28;4986035;28;20496;-80
2022/09/14 09:35:30;;;;;;;6.43;1.40;;;;;;;18.57;80.68;157186.69;5008765;28;20026;-80
2022/09/14 09:38:13;;;;;;;8.45;1.10;;;;;;;18.71;82.51;157221.47;5002000;28;20041;-79
2022/09/14 09:40:43;;;;;;;9.88;1.35;;;;;;;19.04;81.12;157305.34;4982153;28;20041;-80
2022/09/14 09:43:20;;;;;;;11.40;1.77;;;;;;;19.21;78.13;157346.56;4976553;28;20033;-80
2022/09/14 09:45:52;;;;;;;10.27;1.63;;;;;;;19.02;81.33;157298.88;5011835;28;20050;-80
2022/09/14 09:48:21;;;;;;;7.68;1.50;;;;;;;18.67;77.70;157211.19;5012676;28;20037;-81
2022/09/14 09:50:58;;;;;;;3.17;1.05;;;;;;;18.47;78.67;157160.88;5013134;28;20033;-82
2022/09/14 09:53:24;;;;;;;6.72;1.13;;;;;;;18.12;78.39;157073.25;4986485;28;20071;-82
2022/09/14 09:55:50;;;;;;;5.40;1.00;;;;;;;18.02;83.51;157048.75;4984508;28;20046;-80
2022/09/14 09:58:28;;;;;;;6.80;0.82;;;;;;;17.93;87.62;157024.25;4987594;28;20033;-81
2022/09/14 10:01:05;;;;;;;11.48;1.40;;;;;;;17.77;82.94;156985.56;4984314;28;20030;-82
2022/09/14 10:03:36;;;;;;;8.63;1.10;;;;;;;17.78;86.55;156988.16;4981915;28;20432;-77
2022/09/14 10:06:06;;;;;;;8.60;1.20;;;;;;;17.86;82.94;157008.81;4977523;28;20026;-79
2022/09/14 10:08:33;;;;;;;6.13;1.35;;;;;;;18.13;79.43;157075.81;5013194;28;20037;-78
2022/09/14 10:11:01;;;;;;;3.83;0.88;;;;;;;18.59;80.72;157190.53;4997691;28;20068;-81
2022/09/14 10:13:33;;;;;;;7.03;1.10;;;;;;;19.08;77.83;157314.38;5040259;28;20038;-81
2022/09/14 10:16:07;;;;;;;7.53;0.93;;;;;;;19.32;78.10;157374.94;5002709;28;20045;-80
2022/09/14 10:18:34;;;;;;;6.43;0.90;;;;;;;19.22;76.57;157350.44;4993286;28;20041;-78
2022/09/14 10:21:05;;;;;;;6.22;1.45;;;;;;;19.10;83.54;157319.53;4985893;28;20046;-81
2022/09/14 10:23:36;;;;;;;6.43;1.25;;;;;;;19.24;80.63;157355.59;4992176;28;20049;-81
2022/09/14 10:26:11;;;;;;;5.72;1.10;;;;;;;19.30;79.92;157368.50;5002066;28;20038;-80
2022/09/14 10:28:47;;;;;;;7.97;1.13;;;;;;;19.14;76.50;157328.56;4996387;28;20042;-78
2022/09/14 10:31:19;;;;;;;6.35;1.25;;;;;;;18.89;74.99;157265.34;5016718;28;20038;-80
2022/09/14 10:33:56;;;;;;;9.57;1.40;;;;;;;18.64;80.57;157203.41;5019365;28;20055;-80
2022/09/14 10:36:31;;;;;;;11.57;1.30;;;;;;;18.57;84.64;157186.69;4985644;28;20045;-79
2022/09/14 10:39:05;;;;;;;5.35;1.02;;;;;;;18.45;82.27;157155.72;4983097;28;20103;-81
2022/09/14 10:41:50;;;;;;;8.25;1.23;;;;;;;18.47;79.45;157162.16;4973057;28;20041;-80
2022/09/14 10:44:28;;;;;;;5.15;0.90;;;;;;;18.56;81.40;157184.09;4999158;28;20037;-78
2022/09/14 10:47:15;;;;;;;5.82;1.20;;;;;;;18.71;81.48;157221.47;5010052;28;20045;-79
2022/09/14 10:49:56;;;;;;;5.68;1.27;;;;;;;18.75;86.03;157231.78;4996410;28;20046;-79
2022/09/14 10:52:55;;;;;;;6.32;0.90;;;;;;;18.60;82.96;157193.13;5002706;28;20064;-79
2022/09/14 10:55:34;;;;;;;7.30;1.20;;;;;;;18.31;85.54;157119.63;5009227;28;20042;-79
2022/09/14 10:58:10;;;;;;;5.60;1.40;;;;;;;18.02;85.56;157048.75;4999081;28;20411;-78
2022/09/14 11:01:05;;;;;;;7.90;1.35;;;;;;;17.85;83.75;157004.94;5013327;28;20033;-79
2022/09/14 11:03:54;;;;;;;7.78;1.42;;;;;;;17.88;87.97;157013.97;4991014;28;20041;-78
2022/09/14 11:06:38;;;;;;;5.78;1.50;;;;;;;18.03;84.84;157050.06;4979514;28;20176;-80
2022/09/14 11:09:21;;;;;;;6.38;1.17;;;;;;;18.18;85.08;157088.72;5003970;28;20452;-78
2022/09/14 11:11:46;;;;;;;3.58;1.00;;;;;;;17.97;87.30;157035.88;5016129;28;20043;-79
2022/09/14 11:14:29;;;;;;;8.93;1.27;;;;;;;17.96;92.10;157032.00;5000647;28;20033;-80
2022/09/14 11:17:30;;;;;;;5.78;1.05;;;;;;;18.03;89.87;157051.34;4986037;28;20176;-79
2022/09/14 11:20:19;;;;;;;7.80;1.23;;;;;;;18.22;78.98;157097.75;4992270;28;20053;-80
2022/09/14 11:23:23;;;;;;;8.23;1.42;;;;;;;18.36;75.17;157132.53;4981545;28;20037;-79
2022/09/14 11:26:01;;;;;;;6.40;1.50;;;;;;;18.38;75.83;157137.69;4997501;28;20049;-79
2022/09/14 11:28:33;;;;;;;7.75;1.08;;;;;;;18.47;74.58;157160.88;4999680;28;20042;-78
2022/09/14 11:31:01;;;;;;;;;;;;;;;18.41;76.34;157145.44;5003675;28;20037;-79
2022/09/14 11:33:33;;;;;;;6.05;1.08;;;;;;;18.42;80.35;157147.97;5001131;28;20008;-78
2022/09/14 11:36:17;;;;;;;9.35;1.10;;;;;;;18.24;75.43;157102.91;5000037;28;20403;-78